Schoonebeek, Netherlands
Current Conditions -  °F | °C
As of 3:55 PM on Friday 31 Oct 2014 (Local Time) from EHGG Reporting Station
Clear Clear  
Wind Chill: 16°   Ceiling: Unl
Heat Index: 16°   Visibility: 6mi
Dew Point: 13°   Wind: 8mph
Humidity: 82%   Direction: 200°SSW
Pressure: 30.12"   Gusts: NA
Location:  52.66°N, 6.88°E
Report Text: EHGG 311455Z AUTO 20007KT 170V230 9999 NSC 16/13 Q1020 NOSIG
Loading
Personal Weather Stations






























Interactive Weather Map
Tropical Storm Tracking
New forecast layout! Learn more

10-Day Weather Forecast

Advertisements
Track Severe Weather on mobile